Laukaa, Finland
Kieli:  Suomi
4°C CurCond
Päivitetty14/11/2018 15:55 
 

Lähistön Lentoasemien Säätiloja:

 

EFJY - Jyvaskyla (mil/C,) Finland
Etäisyys Sääasemalta: PKo 21km
Päivitetty: 14/11/2018 15:50
Pilvistä
Pilvistä
 Tuulen suunta L
Tuuli: L 7 km/h
Lämpötila: 4°C
Tuulen purevuus: 2°C
Kastepiste: 3°C
Ilmankosteus: 93%
Ilmanpaine: 1018 hPa
Pilvisyys: Pilvistä
Näkyvyys: 10 km
Pilvisyystiedot: Puolipilvistä 122 m
Pilvistä 183 m
2018/11/14 13:50 EFJY 141350Z 27004KT 230V300 9999 SCT004 OVC006 04/03 Q1018
EFHA - Halli (fin-Afb), Finland
Etäisyys Sääasemalta: Lo 56km
Päivitetty: 14/11/2018 15:50
Pilvistä
Pilvistä
 Tuulen suunta L
Tuuli: L 11 km/h
Lämpötila: 4°C
Tuulen purevuus: 1°C
Kastepiste: 3°C
Ilmankosteus: 93%
Ilmanpaine: 1019 hPa
Pilvisyys: Pilvistä
Näkyvyys: 10 km
Pilvisyystiedot: Pilvistä 122 m
2018/11/14 13:50 EFHA 141350Z AUTO 27006KT 9999 OVC004 04/03 Q1019
EFMI - Mikkeli, Finland
Etäisyys Sääasemalta: IKa 105km
Päivitetty: 14/11/2018 15:50
Pilvistä
Pilvistä
 Tuulen suunta LLo
Tuuli: LLo 6 km/h
Lämpötila: 5°C
Kastepiste: 4°C
Ilmankosteus: 93%
Ilmanpaine: 1019 hPa
Pilvisyys: Pilvistä
Näkyvyys: 10 km
Pilvisyystiedot: Pilvistä 366 m
2018/11/14 13:50 EFMI 141350Z AUTO 25003KT 9999 OVC012 05/04 Q1019
 
EFTP - Tampere/Pirkkala, Finland
Etäisyys Sääasemalta: Lo 135km
Päivitetty: 14/11/2018 15:50
Enimmäkseen pilvistä
Enimmäkseen pilvistä
 Tuulen suunta L
Tuuli: L 6 km/h
Lämpötila: 4°C
Kastepiste: 4°C
Ilmankosteus: 100%
Ilmanpaine: 1020 hPa
Pilvisyys: Enimmäkseen pilvistä
Näkyvyys: 10 km
Pilvisyystiedot: Puolipilvistä 274 m
Enimmäkseen pilvistä 335 m
2018/11/14 13:50 EFTP 141350Z AUTO 26003KT 9999 SCT009 BKN011 04/04 Q1020
EFKU - Kuopio (mil/Civ), Finland
Etäisyys Sääasemalta: Ko 146km
Päivitetty: 14/11/2018 15:50
Pilvistä
Pilvistä
 Tuulen suunta LLo
Tuuli: LLo 9 km/h
Lämpötila: 5°C
Tuulen purevuus: 3°C
Kastepiste: 4°C
Ilmankosteus: 93%
Ilmanpaine: 1018 hPa
Pilvisyys: Pilvistä
Näkyvyys: 10 km
Pilvisyystiedot: Pilvistä 274 m
2018/11/14 13:50 EFKU 141350Z 25005KT 9999 OVC009 05/04 Q1018
EFSI - Seinajoki-Ilmajo, Finland
Etäisyys Sääasemalta: LLu 149km
Päivitetty: 14/11/2018 15:50
Pilvistä
Pilvistä
 Tuulen suunta Lo
Tuuli: Lo 6 km/h
Lämpötila: 4°C
Kastepiste: 3°C
Ilmankosteus: 93%
Ilmanpaine: 1019 hPa
Pilvisyys: Pilvistä
Näkyvyys: 7 km
Pilvisyystiedot: Pilvistä 91 m
2018/11/14 13:50 EFSI 141350Z AUTO 23003KT 7000 OVC003 04/03 Q1019